sensor_id;sensor_type;location;lat;lon;timestamp;temperature;humidity
35563;DHT22;21665;40.108;18.302;2024-03-25T07:43:15;17.90;99.90
35563;DHT22;21665;40.108;18.302;2024-03-25T07:45:42;18.20;99.90
35563;DHT22;21665;40.108;18.302;2024-03-25T07:48:09;18.10;99.90
35563;DHT22;21665;40.108;18.302;2024-03-25T07:50:35;17.60;99.90
35563;DHT22;21665;40.108;18.302;2024-03-25T07:53:01;18.00;99.90
35563;DHT22;21665;40.108;18.302;2024-03-25T07:55:27;18.30;99.90
35563;DHT22;21665;40.108;18.302;2024-03-25T07:57:54;18.30;99.90
35563;DHT22;21665;40.108;18.302;2024-03-25T08:00:20;18.20;99.90
35563;DHT22;21665;40.108;18.302;2024-03-25T08:02:46;18.30;99.90
35563;DHT22;21665;40.108;18.302;2024-03-25T08:05:13;18.30;99.90
35563;DHT22;21665;40.108;18.302;2024-03-25T08:07:39;18.10;99.90
35563;DHT22;21665;40.108;18.302;2024-03-25T08:10:06;18.00;99.90
35563;DHT22;21665;40.108;18.302;2024-03-25T08:12:32;17.90;99.90
35563;DHT22;21665;40.108;18.302;2024-03-25T08:14:58;17.90;99.90
35563;DHT22;21665;40.108;18.302;2024-03-25T08:17:25;18.10;99.90
35563;DHT22;21665;40.108;18.302;2024-03-25T08:19:51;18.10;99.90
35563;DHT22;21665;40.108;18.302;2024-03-25T08:22:17;18.20;99.90
35563;DHT22;21665;40.108;18.302;2024-03-25T08:24:44;18.40;99.90
35563;DHT22;21665;40.108;18.302;2024-03-25T08:27:10;18.40;99.90
35563;DHT22;21665;40.108;18.302;2024-03-25T08:29:36;18.60;99.90
35563;DHT22;21665;40.108;18.302;2024-03-25T08:32:02;18.90;99.90
35563;DHT22;21665;40.108;18.302;2024-03-25T08:34:29;19.10;99.90
35563;DHT22;21665;40.108;18.302;2024-03-25T08:36:55;18.50;99.90
35563;DHT22;21665;40.108;18.302;2024-03-25T08:39:21;18.40;99.90
35563;DHT22;21665;40.108;18.302;2024-03-25T08:41:47;18.30;99.90
35563;DHT22;21665;40.108;18.302;2024-03-25T08:44:14;18.10;99.90
35563;DHT22;21665;40.108;18.302;2024-03-25T08:46:40;18.30;99.90
35563;DHT22;21665;40.108;18.302;2024-03-25T08:49:07;18.20;99.90
35563;DHT22;21665;40.108;18.302;2024-03-25T08:51:34;18.40;99.90
35563;DHT22;21665;40.108;18.302;2024-03-25T08:54:01;18.60;99.90
35563;DHT22;21665;40.108;18.302;2024-03-25T08:56:27;17.90;99.90
35563;DHT22;21665;40.108;18.302;2024-03-25T08:58:56;17.70;99.90
35563;DHT22;21665;40.108;18.302;2024-03-25T09:01:23;17.70;99.90
35563;DHT22;21665;40.108;18.302;2024-03-25T09:03:50;17.60;99.90
35563;DHT22;21665;40.108;18.302;2024-03-25T09:06:16;17.30;99.90
35563;DHT22;21665;40.108;18.302;2024-03-25T09:08:43;17.50;99.90
35563;DHT22;21665;40.108;18.302;2024-03-25T09:11:28;17.40;99.90
35563;DHT22;21665;40.108;18.302;2024-03-25T09:13:55;17.60;99.90
35563;DHT22;21665;40.108;18.302;2024-03-25T09:16:23;17.80;99.90
35563;DHT22;21665;40.108;18.302;2024-03-25T09:18:49;17.90;99.90
35563;DHT22;21665;40.108;18.302;2024-03-25T09:21:17;17.80;99.90
35563;DHT22;21665;40.108;18.302;2024-03-25T09:23:43;17.60;99.90
35563;DHT22;21665;40.108;18.302;2024-03-25T09:26:09;17.50;99.90
35563;DHT22;21665;40.108;18.302;2024-03-25T09:28:37;17.90;99.90
35563;DHT22;21665;40.108;18.302;2024-03-25T09:31:03;18.10;99.90
35563;DHT22;21665;40.108;18.302;2024-03-25T09:33:32;18.30;99.90
35563;DHT22;21665;40.108;18.302;2024-03-25T09:36:00;18.10;99.90
35563;DHT22;21665;40.108;18.302;2024-03-25T09:38:26;18.20;99.90
35563;DHT22;21665;40.108;18.302;2024-03-25T09:40:53;18.60;99.90
35563;DHT22;21665;40.108;18.302;2024-03-25T09:43:32;18.80;99.90
35563;DHT22;21665;40.108;18.302;2024-03-25T09:45:59;18.80;99.90
35563;DHT22;21665;40.108;18.302;2024-03-25T09:48:26;18.60;99.90
35563;DHT22;21665;40.108;18.302;2024-03-25T09:50:56;18.40;99.90
35563;DHT22;21665;40.108;18.302;2024-03-25T09:53:22;18.20;99.90
35563;DHT22;21665;40.108;18.302;2024-03-25T09:55:49;17.80;99.90
35563;DHT22;21665;40.108;18.302;2024-03-25T09:58:16;17.90;99.90
35563;DHT22;21665;40.108;18.302;2024-03-25T10:00:44;18.20;99.90
35563;DHT22;21665;40.108;18.302;2024-03-25T10:03:10;18.20;99.90
35563;DHT22;21665;40.108;18.302;2024-03-25T10:05:38;17.70;99.90
35563;DHT22;21665;40.108;18.302;2024-03-25T10:08:04;17.80;99.90
35563;DHT22;21665;40.108;18.302;2024-03-25T10:10:33;17.90;99.90
35563;DHT22;21665;40.108;18.302;2024-03-25T10:12:59;18.30;99.90
35563;DHT22;21665;40.108;18.302;2024-03-25T10:15:27;18.80;99.90
35563;DHT22;21665;40.108;18.302;2024-03-25T10:17:54;19.10;99.90
35563;DHT22;21665;40.108;18.302;2024-03-25T10:20:20;18.80;99.90
35563;DHT22;21665;40.108;18.302;2024-03-25T10:22:48;18.60;99.90
35563;DHT22;21665;40.108;18.302;2024-03-25T10:25:24;18.90;99.90
35563;DHT22;21665;40.108;18.302;2024-03-25T10:27:55;19.30;99.90
35563;DHT22;21665;40.108;18.302;2024-03-25T10:30:22;19.00;99.90
35563;DHT22;21665;40.108;18.302;2024-03-25T10:32:59;18.40;99.90
35563;DHT22;21665;40.108;18.302;2024-03-25T10:35:32;18.10;99.90
35563;DHT22;21665;40.108;18.302;2024-03-25T10:38:04;18.10;99.90
35563;DHT22;21665;40.108;18.302;2024-03-25T10:40:33;17.90;99.90
35563;DHT22;21665;40.108;18.302;2024-03-25T10:43:10;17.70;99.90
35563;DHT22;21665;40.108;18.302;2024-03-25T10:45:47;17.60;99.90
35563;DHT22;21665;40.108;18.302;2024-03-25T10:48:31;17.90;99.90
35563;DHT22;21665;40.108;18.302;2024-03-25T10:51:01;18.10;99.90
35563;DHT22;21665;40.108;18.302;2024-03-25T10:53:32;18.40;99.90
35563;DHT22;21665;40.108;18.302;2024-03-25T10:56:01;18.20;99.90
35563;DHT22;21665;40.108;18.302;2024-03-25T10:58:31;18.10;99.90
35563;DHT22;21665;40.108;18.302;2024-03-25T11:01:00;17.60;99.90
35563;DHT22;21665;40.108;18.302;2024-03-25T11:03:29;17.60;99.90
35563;DHT22;21665;40.108;18.302;2024-03-25T11:05:56;17.70;99.90
35563;DHT22;21665;40.108;18.302;2024-03-25T11:08:32;17.90;99.90
35563;DHT22;21665;40.108;18.302;2024-03-25T11:11:00;18.20;99.90
35563;DHT22;21665;40.108;18.302;2024-03-25T11:13:27;18.60;99.90
35563;DHT22;21665;40.108;18.302;2024-03-25T11:15:56;18.70;99.90
35563;DHT22;21665;40.108;18.302;2024-03-25T11:18:25;18.50;99.90
35563;DHT22;21665;40.108;18.302;2024-03-25T11:21:04;18.70;99.90
35563;DHT22;21665;40.108;18.302;2024-03-25T11:23:44;19.10;99.90
35563;DHT22;21665;40.108;18.302;2024-03-25T11:26:20;19.20;99.90
35563;DHT22;21665;40.108;18.302;2024-03-25T11:28:46;19.20;99.90
35563;DHT22;21665;40.108;18.302;2024-03-25T11:31:13;19.00;99.90
35563;DHT22;21665;40.108;18.302;2024-03-25T11:33:40;18.70;99.90
35563;DHT22;21665;40.108;18.302;2024-03-25T11:36:07;18.50;99.90
35563;DHT22;21665;40.108;18.302;2024-03-25T11:38:34;18.50;99.90
35563;DHT22;21665;40.108;18.302;2024-03-25T11:41:00;18.40;99.90
35563;DHT22;21665;40.108;18.302;2024-03-25T11:43:27;18.10;99.90
35563;DHT22;21665;40.108;18.302;2024-03-25T11:45:53;18.20;99.90
35563;DHT22;21665;40.108;18.302;2024-03-25T11:48:20;18.10;99.90
35563;DHT22;21665;40.108;18.302;2024-03-25T11:50:47;18.20;99.90
35563;DHT22;21665;40.108;18.302;2024-03-25T11:53:17;18.50;99.90
35563;DHT22;21665;40.108;18.302;2024-03-25T11:55:47;18.60;99.90
35563;DHT22;21665;40.108;18.302;2024-03-25T11:58:23;19.10;99.90
35563;DHT22;21665;40.108;18.302;2024-03-25T12:00:52;19.20;99.90
35563;DHT22;21665;40.108;18.302;2024-03-25T12:03:22;19.00;99.90
35563;DHT22;21665;40.108;18.302;2024-03-25T12:05:48;18.90;99.90
35563;DHT22;21665;40.108;18.302;2024-03-25T12:08:17;19.10;99.90
35563;DHT22;21665;40.108;18.302;2024-03-25T12:10:44;19.00;99.90
35563;DHT22;21665;40.108;18.302;2024-03-25T12:13:28;19.00;99.90
35563;DHT22;21665;40.108;18.302;2024-03-25T12:15:55;19.00;99.90
35563;DHT22;21665;40.108;18.302;2024-03-25T12:18:25;19.00;99.90
35563;DHT22;21665;40.108;18.302;2024-03-25T12:20:51;18.80;99.90
35563;DHT22;21665;40.108;18.302;2024-03-25T12:23:18;18.70;99.90
35563;DHT22;21665;40.108;18.302;2024-03-25T12:25:53;18.40;99.90
35563;DHT22;21665;40.108;18.302;2024-03-25T12:28:20;18.30;99.90
35563;DHT22;21665;40.108;18.302;2024-03-25T12:30:54;18.20;99.90
35563;DHT22;21665;40.108;18.302;2024-03-25T12:33:23;18.50;99.90
35563;DHT22;21665;40.108;18.302;2024-03-25T12:35:53;18.80;99.90
35563;DHT22;21665;40.108;18.302;2024-03-25T12:38:26;19.00;99.90
35563;DHT22;21665;40.108;18.302;2024-03-25T12:41:11;19.20;99.90
35563;DHT22;21665;40.108;18.302;2024-03-25T12:43:45;19.00;99.90
35563;DHT22;21665;40.108;18.302;2024-03-25T12:46:12;18.80;99.90
35563;DHT22;21665;40.108;18.302;2024-03-25T12:48:39;18.60;99.90
35563;DHT22;21665;40.108;18.302;2024-03-25T12:51:13;18.70;99.90
35563;DHT22;21665;40.108;18.302;2024-03-25T12:53:47;18.80;99.90
35563;DHT22;21665;40.108;18.302;2024-03-25T12:56:14;19.00;99.90
35563;DHT22;21665;40.108;18.302;2024-03-25T12:58:41;18.80;99.90
35563;DHT22;21665;40.108;18.302;2024-03-25T13:01:08;18.60;99.90
35563;DHT22;21665;40.108;18.302;2024-03-25T13:03:35;18.60;99.90
35563;DHT22;21665;40.108;18.302;2024-03-25T13:06:02;18.70;99.90
35563;DHT22;21665;40.108;18.302;2024-03-25T13:08:29;18.90;99.90
35563;DHT22;21665;40.108;18.302;2024-03-25T13:10:55;18.70;99.90
35563;DHT22;21665;40.108;18.302;2024-03-25T13:13:25;18.40;99.90
35563;DHT22;21665;40.108;18.302;2024-03-25T13:15:52;18.50;99.90
35563;DHT22;21665;40.108;18.302;2024-03-25T13:18:19;18.20;99.90
35563;DHT22;21665;40.108;18.302;2024-03-25T13:20:46;18.20;99.90
35563;DHT22;21665;40.108;18.302;2024-03-25T13:23:13;18.40;99.90
35563;DHT22;21665;40.108;18.302;2024-03-25T13:25:41;18.50;99.90
35563;DHT22;21665;40.108;18.302;2024-03-25T13:28:08;18.10;99.90
35563;DHT22;21665;40.108;18.302;2024-03-25T13:30:35;18.10;99.90
35563;DHT22;21665;40.108;18.302;2024-03-25T13:33:02;17.80;99.90
35563;DHT22;21665;40.108;18.302;2024-03-25T13:35:28;18.10;99.90
35563;DHT22;21665;40.108;18.302;2024-03-25T13:37:55;17.80;99.90
35563;DHT22;21665;40.108;18.302;2024-03-25T13:40:21;17.90;99.90
35563;DHT22;21665;40.108;18.302;2024-03-25T13:42:47;17.90;99.90
35563;DHT22;21665;40.108;18.302;2024-03-25T13:45:14;17.80;99.90
35563;DHT22;21665;40.108;18.302;2024-03-25T13:47:41;17.80;99.90
35563;DHT22;21665;40.108;18.302;2024-03-25T13:50:08;17.60;99.90
35563;DHT22;21665;40.108;18.302;2024-03-25T13:52:35;17.50;99.90
35563;DHT22;21665;40.108;18.302;2024-03-25T13:55:02;17.50;99.90
35563;DHT22;21665;40.108;18.302;2024-03-25T13:57:29;17.50;99.90
35563;DHT22;21665;40.108;18.302;2024-03-25T13:59:56;17.30;99.90
35563;DHT22;21665;40.108;18.302;2024-03-25T14:02:24;17.50;99.90
35563;DHT22;21665;40.108;18.302;2024-03-25T14:04:51;17.50;99.90
35563;DHT22;21665;40.108;18.302;2024-03-25T14:07:17;17.20;99.90
35563;DHT22;21665;40.108;18.302;2024-03-25T14:09:44;17.00;99.90
35563;DHT22;21665;40.108;18.302;2024-03-25T14:12:11;17.10;99.90
35563;DHT22;21665;40.108;18.302;2024-03-25T14:14:38;17.30;99.90
35563;DHT22;21665;40.108;18.302;2024-03-25T14:17:06;17.20;99.90
35563;DHT22;21665;40.108;18.302;2024-03-25T14:19:33;17.20;99.90
35563;DHT22;21665;40.108;18.302;2024-03-25T14:21:59;17.30;99.90
35563;DHT22;21665;40.108;18.302;2024-03-25T14:24:26;17.30;99.90
35563;DHT22;21665;40.108;18.302;2024-03-25T14:26:53;17.10;99.90
35563;DHT22;21665;40.108;18.302;2024-03-25T14:29:20;17.00;99.90
35563;DHT22;21665;40.108;18.302;2024-03-25T14:31:47;16.90;99.90
35563;DHT22;21665;40.108;18.302;2024-03-25T14:34:13;16.80;99.90
35563;DHT22;21665;40.108;18.302;2024-03-25T14:36:43;16.60;99.90
35563;DHT22;21665;40.108;18.302;2024-03-25T14:39:10;16.50;99.90
35563;DHT22;21665;40.108;18.302;2024-03-25T14:41:40;16.70;99.90
35563;DHT22;21665;40.108;18.302;2024-03-25T14:44:06;17.00;99.90
35563;DHT22;21665;40.108;18.302;2024-03-25T14:46:33;17.00;99.90
35563;DHT22;21665;40.108;18.302;2024-03-25T14:48:59;16.80;99.90
35563;DHT22;21665;40.108;18.302;2024-03-25T14:51:25;16.70;99.90
35563;DHT22;21665;40.108;18.302;2024-03-25T14:53:52;16.40;99.90
35563;DHT22;21665;40.108;18.302;2024-03-25T14:56:19;16.30;99.90
35563;DHT22;21665;40.108;18.302;2024-03-25T14:58:46;16.10;99.90
35563;DHT22;21665;40.108;18.302;2024-03-25T15:01:12;16.00;99.90
35563;DHT22;21665;40.108;18.302;2024-03-25T15:03:40;16.00;99.90
35563;DHT22;21665;40.108;18.302;2024-03-25T15:06:06;15.90;99.90
35563;DHT22;21665;40.108;18.302;2024-03-25T15:08:32;15.80;99.90
35563;DHT22;21665;40.108;18.302;2024-03-25T15:10:59;15.70;99.90
35563;DHT22;21665;40.108;18.302;2024-03-25T15:13:25;15.70;99.90
35563;DHT22;21665;40.108;18.302;2024-03-25T15:15:55;15.60;99.90
35563;DHT22;21665;40.108;18.302;2024-03-25T15:18:23;15.70;99.90
35563;DHT22;21665;40.108;18.302;2024-03-25T15:21:03;15.50;99.90
35563;DHT22;21665;40.108;18.302;2024-03-25T15:23:31;15.60;99.90
35563;DHT22;21665;40.108;18.302;2024-03-25T15:25:58;15.60;99.90
35563;DHT22;21665;40.108;18.302;2024-03-25T15:28:25;15.60;99.90
35563;DHT22;21665;40.108;18.302;2024-03-25T15:30:53;15.60;99.90
35563;DHT22;21665;40.108;18.302;2024-03-25T15:33:19;15.50;99.90
35563;DHT22;21665;40.108;18.302;2024-03-25T15:35:46;15.50;99.90
35563;DHT22;21665;40.108;18.302;2024-03-25T15:38:12;15.40;99.90
35563;DHT22;21665;40.108;18.302;2024-03-25T15:40:38;15.60;99.90
35563;DHT22;21665;40.108;18.302;2024-03-25T15:43:05;15.50;99.90
35563;DHT22;21665;40.108;18.302;2024-03-25T15:45:32;15.30;99.90
35563;DHT22;21665;40.108;18.302;2024-03-25T15:47:58;15.30;99.90
35563;DHT22;21665;40.108;18.302;2024-03-25T15:50:25;15.30;99.90
35563;DHT22;21665;40.108;18.302;2024-03-25T15:52:51;15.30;99.90
35563;DHT22;21665;40.108;18.302;2024-03-25T15:55:18;15.20;99.90
35563;DHT22;21665;40.108;18.302;2024-03-25T15:57:48;15.10;99.90
35563;DHT22;21665;40.108;18.302;2024-03-25T16:00:15;15.00;99.90
35563;DHT22;21665;40.108;18.302;2024-03-25T16:02:41;14.80;99.90
35563;DHT22;21665;40.108;18.302;2024-03-25T16:05:08;14.80;99.90
35563;DHT22;21665;40.108;18.302;2024-03-25T16:07:34;14.80;99.90
35563;DHT22;21665;40.108;18.302;2024-03-25T16:10:03;14.80;99.90
35563;DHT22;21665;40.108;18.302;2024-03-25T16:12:37;14.70;99.90
35563;DHT22;21665;40.108;18.302;2024-03-25T16:15:04;14.60;99.90
35563;DHT22;21665;40.108;18.302;2024-03-25T16:17:30;14.40;99.90
35563;DHT22;21665;40.108;18.302;2024-03-25T16:19:58;14.40;99.90
35563;DHT22;21665;40.108;18.302;2024-03-25T16:22:24;14.50;99.90
35563;DHT22;21665;40.108;18.302;2024-03-25T16:24:51;14.50;99.90
35563;DHT22;21665;40.108;18.302;2024-03-25T16:27:18;14.40;99.90
35563;DHT22;21665;40.108;18.302;2024-03-25T16:29:44;14.30;99.90
35563;DHT22;21665;40.108;18.302;2024-03-25T16:32:10;14.40;99.90
35563;DHT22;21665;40.108;18.302;2024-03-25T16:34:37;14.30;99.90
35563;DHT22;21665;40.108;18.302;2024-03-25T16:37:03;14.30;99.90
35563;DHT22;21665;40.108;18.302;2024-03-25T16:39:30;14.20;99.90
35563;DHT22;21665;40.108;18.302;2024-03-25T16:41:56;14.20;99.90
35563;DHT22;21665;40.108;18.302;2024-03-25T16:44:23;14.10;99.90
35563;DHT22;21665;40.108;18.302;2024-03-25T16:46:52;14.00;99.90
35563;DHT22;21665;40.108;18.302;2024-03-25T16:49:19;14.00;99.90
35563;DHT22;21665;40.108;18.302;2024-03-25T16:51:45;13.90;99.90
35563;DHT22;21665;40.108;18.302;2024-03-25T16:54:11;13.90;99.90
35563;DHT22;21665;40.108;18.302;2024-03-25T16:56:38;13.80;99.90
35563;DHT22;21665;40.108;18.302;2024-03-25T16:59:04;13.70;99.90
35563;DHT22;21665;40.108;18.302;2024-03-25T17:01:31;13.70;99.90
35563;DHT22;21665;40.108;18.302;2024-03-25T17:04:28;13.70;99.90
35563;DHT22;21665;40.108;18.302;2024-03-25T17:06:54;13.70;99.90
35563;DHT22;21665;40.108;18.302;2024-03-25T17:09:21;13.70;99.90
35563;DHT22;21665;40.108;18.302;2024-03-25T17:11:48;13.60;99.90
35563;DHT22;21665;40.108;18.302;2024-03-25T17:14:17;13.50;99.90
35563;DHT22;21665;40.108;18.302;2024-03-25T17:16:44;13.50;99.90
35563;DHT22;21665;40.108;18.302;2024-03-25T17:19:11;13.50;99.90
35563;DHT22;21665;40.108;18.302;2024-03-25T17:21:38;13.40;99.90
35563;DHT22;21665;40.108;18.302;2024-03-25T17:24:06;13.30;99.90
35563;DHT22;21665;40.108;18.302;2024-03-25T17:26:34;13.30;99.90
35563;DHT22;21665;40.108;18.302;2024-03-25T17:29:01;13.30;99.90
35563;DHT22;21665;40.108;18.302;2024-03-25T17:31:28;13.30;99.90
35563;DHT22;21665;40.108;18.302;2024-03-25T17:33:55;13.30;99.90
35563;DHT22;21665;40.108;18.302;2024-03-25T17:36:21;13.20;99.90
35563;DHT22;21665;40.108;18.302;2024-03-25T17:38:48;13.20;99.90
35563;DHT22;21665;40.108;18.302;2024-03-25T17:41:14;13.20;99.90
35563;DHT22;21665;40.108;18.302;2024-03-25T17:43:41;13.10;99.90
35563;DHT22;21665;40.108;18.302;2024-03-25T17:46:07;13.10;99.90
35563;DHT22;21665;40.108;18.302;2024-03-25T17:48:35;13.10;99.90
35563;DHT22;21665;40.108;18.302;2024-03-25T17:51:02;13.10;99.90
35563;DHT22;21665;40.108;18.302;2024-03-25T17:53:29;13.10;99.90
35563;DHT22;21665;40.108;18.302;2024-03-25T17:55:56;13.10;99.90
35563;DHT22;21665;40.108;18.302;2024-03-25T17:58:25;13.10;99.90
35563;DHT22;21665;40.108;18.302;2024-03-25T18:00:53;13.10;99.90
35563;DHT22;21665;40.108;18.302;2024-03-25T18:03:20;13.10;99.90
35563;DHT22;21665;40.108;18.302;2024-03-25T18:05:48;13.10;99.90
35563;DHT22;21665;40.108;18.302;2024-03-25T18:08:14;13.10;99.90
35563;DHT22;21665;40.108;18.302;2024-03-25T18:10:41;13.10;99.90
35563;DHT22;21665;40.108;18.302;2024-03-25T18:13:10;13.10;99.90
35563;DHT22;21665;40.108;18.302;2024-03-25T18:15:51;13.10;99.90
35563;DHT22;21665;40.108;18.302;2024-03-25T18:18:20;13.10;99.90
35563;DHT22;21665;40.108;18.302;2024-03-25T18:20:49;13.10;99.90
35563;DHT22;21665;40.108;18.302;2024-03-25T18:23:16;13.10;99.90
35563;DHT22;21665;40.108;18.302;2024-03-25T18:25:44;13.10;99.90
35563;DHT22;21665;40.108;18.302;2024-03-25T18:28:15;13.10;99.90
35563;DHT22;21665;40.108;18.302;2024-03-25T18:30:42;13.10;99.90
35563;DHT22;21665;40.108;18.302;2024-03-25T18:33:08;13.10;99.90
35563;DHT22;21665;40.108;18.302;2024-03-25T18:35:38;13.10;99.90
35563;DHT22;21665;40.108;18.302;2024-03-25T18:38:06;13.00;99.90
35563;DHT22;21665;40.108;18.302;2024-03-25T18:40:33;13.00;99.90
35563;DHT22;21665;40.108;18.302;2024-03-25T18:42:59;13.00;99.90
35563;DHT22;21665;40.108;18.302;2024-03-25T18:45:26;13.00;99.90
35563;DHT22;21665;40.108;18.302;2024-03-25T18:47:52;13.00;99.90
35563;DHT22;21665;40.108;18.302;2024-03-25T18:50:19;13.10;99.90
35563;DHT22;21665;40.108;18.302;2024-03-25T18:52:46;13.10;99.90
35563;DHT22;21665;40.108;18.302;2024-03-25T18:55:12;13.10;99.90
35563;DHT22;21665;40.108;18.302;2024-03-25T18:57:39;13.10;99.90
35563;DHT22;21665;40.108;18.302;2024-03-25T19:00:06;13.10;99.90
35563;DHT22;21665;40.108;18.302;2024-03-25T19:02:37;13.10;99.90
35563;DHT22;21665;40.108;18.302;2024-03-25T19:05:04;13.20;99.90
35563;DHT22;21665;40.108;18.302;2024-03-25T19:07:31;13.20;99.90
35563;DHT22;21665;40.108;18.302;2024-03-25T19:09:58;13.20;99.90
35563;DHT22;21665;40.108;18.302;2024-03-25T19:12:24;13.30;99.90
35563;DHT22;21665;40.108;18.302;2024-03-25T19:14:52;13.30;99.90
35563;DHT22;21665;40.108;18.302;2024-03-25T19:17:19;13.30;99.90
35563;DHT22;21665;40.108;18.302;2024-03-25T19:19:46;13.30;99.90
35563;DHT22;21665;40.108;18.302;2024-03-25T19:22:12;13.30;99.90
35563;DHT22;21665;40.108;18.302;2024-03-25T19:24:39;13.40;99.90
35563;DHT22;21665;40.108;18.302;2024-03-25T19:27:05;13.40;99.90
35563;DHT22;21665;40.108;18.302;2024-03-25T19:29:32;13.40;99.90
35563;DHT22;21665;40.108;18.302;2024-03-25T19:31:58;13.40;99.90
35563;DHT22;21665;40.108;18.302;2024-03-25T19:34:25;13.30;99.90
35563;DHT22;21665;40.108;18.302;2024-03-25T19:36:51;13.10;99.90
35563;DHT22;21665;40.108;18.302;2024-03-25T19:39:19;13.00;99.90
35563;DHT22;21665;40.108;18.302;2024-03-25T19:41:45;13.00;99.90
35563;DHT22;21665;40.108;18.302;2024-03-25T19:44:12;12.90;99.90
35563;DHT22;21665;40.108;18.302;2024-03-25T19:46:38;12.90;99.90
35563;DHT22;21665;40.108;18.302;2024-03-25T19:49:05;12.80;99.90
35563;DHT22;21665;40.108;18.302;2024-03-25T19:51:31;12.80;99.90
35563;DHT22;21665;40.108;18.302;2024-03-25T19:53:58;12.80;99.90
35563;DHT22;21665;40.108;18.302;2024-03-25T19:56:24;12.70;99.90
35563;DHT22;21665;40.108;18.302;2024-03-25T19:58:51;12.60;99.90
35563;DHT22;21665;40.108;18.302;2024-03-25T20:01:17;12.60;99.90
35563;DHT22;21665;40.108;18.302;2024-03-25T20:03:44;12.60;99.90
35563;DHT22;21665;40.108;18.302;2024-03-25T20:06:12;12.60;99.90
35563;DHT22;21665;40.108;18.302;2024-03-25T20:08:40;12.60;99.90
35563;DHT22;21665;40.108;18.302;2024-03-25T20:11:07;12.60;99.90
35563;DHT22;21665;40.108;18.302;2024-03-25T20:13:33;12.60;99.90
35563;DHT22;21665;40.108;18.302;2024-03-25T20:16:00;12.60;99.90
35563;DHT22;21665;40.108;18.302;2024-03-25T20:18:26;12.50;99.90
35563;DHT22;21665;40.108;18.302;2024-03-25T20:20:54;12.50;99.90
35563;DHT22;21665;40.108;18.302;2024-03-25T20:23:20;12.40;99.90
35563;DHT22;21665;40.108;18.302;2024-03-25T20:25:46;12.30;99.90
35563;DHT22;21665;40.108;18.302;2024-03-25T20:28:13;12.40;99.90
35563;DHT22;21665;40.108;18.302;2024-03-25T20:30:39;12.40;99.90
35563;DHT22;21665;40.108;18.302;2024-03-25T20:33:06;12.40;99.90
35563;DHT22;21665;40.108;18.302;2024-03-25T20:35:35;12.40;99.90
35563;DHT22;21665;40.108;18.302;2024-03-25T20:38:04;12.50;99.90
35563;DHT22;21665;40.108;18.302;2024-03-25T20:40:31;12.40;99.90
35563;DHT22;21665;40.108;18.302;2024-03-25T20:42:58;12.40;99.90
35563;DHT22;21665;40.108;18.302;2024-03-25T20:45:27;12.30;99.90
35563;DHT22;21665;40.108;18.302;2024-03-25T20:47:53;12.30;99.90
35563;DHT22;21665;40.108;18.302;2024-03-25T20:50:20;12.20;99.90
35563;DHT22;21665;40.108;18.302;2024-03-25T20:52:46;12.20;99.90
35563;DHT22;21665;40.108;18.302;2024-03-25T20:55:13;12.20;99.90
35563;DHT22;21665;40.108;18.302;2024-03-25T20:57:39;12.20;99.90
35563;DHT22;21665;40.108;18.302;2024-03-25T21:00:06;12.30;99.90
35563;DHT22;21665;40.108;18.302;2024-03-25T21:02:35;12.30;99.90
35563;DHT22;21665;40.108;18.302;2024-03-25T21:05:02;12.30;99.90
35563;DHT22;21665;40.108;18.302;2024-03-25T21:07:35;12.30;99.90
35563;DHT22;21665;40.108;18.302;2024-03-25T21:10:02;12.30;99.90
35563;DHT22;21665;40.108;18.302;2024-03-25T21:12:28;12.20;99.90
35563;DHT22;21665;40.108;18.302;2024-03-25T21:14:55;12.20;99.90
35563;DHT22;21665;40.108;18.302;2024-03-25T21:17:21;12.20;99.90
35563;DHT22;21665;40.108;18.302;2024-03-25T21:19:48;12.20;99.90
35563;DHT22;21665;40.108;18.302;2024-03-25T21:22:14;12.20;99.90
35563;DHT22;21665;40.108;18.302;2024-03-25T21:24:40;12.20;99.90
35563;DHT22;21665;40.108;18.302;2024-03-25T21:27:09;12.10;99.90
35563;DHT22;21665;40.108;18.302;2024-03-25T21:29:35;12.10;99.90
35563;DHT22;21665;40.108;18.302;2024-03-25T21:32:02;12.10;99.90
35563;DHT22;21665;40.108;18.302;2024-03-25T21:34:28;12.10;99.90
35563;DHT22;21665;40.108;18.302;2024-03-25T21:36:54;12.10;99.90
35563;DHT22;21665;40.108;18.302;2024-03-25T21:39:21;12.10;99.90
35563;DHT22;21665;40.108;18.302;2024-03-25T21:41:48;12.20;99.90
35563;DHT22;21665;40.108;18.302;2024-03-25T21:44:14;12.20;99.90
35563;DHT22;21665;40.108;18.302;2024-03-25T21:46:41;12.20;99.90
35563;DHT22;21665;40.108;18.302;2024-03-25T21:49:07;12.20;99.90
35563;DHT22;21665;40.108;18.302;2024-03-25T21:51:37;12.20;99.90
35563;DHT22;21665;40.108;18.302;2024-03-25T21:54:03;12.20;99.90
35563;DHT22;21665;40.108;18.302;2024-03-25T21:56:30;12.20;99.90
35563;DHT22;21665;40.108;18.302;2024-03-25T21:58:56;12.20;99.90
35563;DHT22;21665;40.108;18.302;2024-03-25T22:01:23;12.10;99.90
35563;DHT22;21665;40.108;18.302;2024-03-25T22:03:49;12.10;99.90
35563;DHT22;21665;40.108;18.302;2024-03-25T22:06:15;12.10;99.90
35563;DHT22;21665;40.108;18.302;2024-03-25T22:08:42;12.00;99.90
35563;DHT22;21665;40.108;18.302;2024-03-25T22:11:10;12.00;99.90
35563;DHT22;21665;40.108;18.302;2024-03-25T22:13:36;12.00;99.90
35563;DHT22;21665;40.108;18.302;2024-03-25T22:16:03;11.90;99.90
35563;DHT22;21665;40.108;18.302;2024-03-25T22:18:30;11.90;99.90
35563;DHT22;21665;40.108;18.302;2024-03-25T22:20:56;11.80;99.90
35563;DHT22;21665;40.108;18.302;2024-03-25T22:23:23;11.70;99.90
35563;DHT22;21665;40.108;18.302;2024-03-25T22:25:49;11.60;99.90
35563;DHT22;21665;40.108;18.302;2024-03-25T22:28:16;11.50;99.90
35563;DHT22;21665;40.108;18.302;2024-03-25T22:30:42;11.40;99.90
35563;DHT22;21665;40.108;18.302;2024-03-25T22:33:08;11.40;99.90
35563;DHT22;21665;40.108;18.302;2024-03-25T22:35:34;11.40;99.90
35563;DHT22;21665;40.108;18.302;2024-03-25T22:38:01;11.30;99.90
35563;DHT22;21665;40.108;18.302;2024-03-25T22:40:27;11.40;99.90
35563;DHT22;21665;40.108;18.302;2024-03-25T22:42:53;11.40;99.90
35563;DHT22;21665;40.108;18.302;2024-03-25T22:45:20;11.40;99.90
35563;DHT22;21665;40.108;18.302;2024-03-25T22:47:46;11.50;99.90
35563;DHT22;21665;40.108;18.302;2024-03-25T22:50:15;11.50;99.90
35563;DHT22;21665;40.108;18.302;2024-03-25T22:52:41;11.60;99.90
35563;DHT22;21665;40.108;18.302;2024-03-25T22:55:08;11.60;99.90
35563;DHT22;21665;40.108;18.302;2024-03-25T22:57:34;11.60;99.90
35563;DHT22;21665;40.108;18.302;2024-03-25T23:00:01;11.60;99.90